Time;durP1;ratioP1;P1;durP2;ratioP2;P2;SDS_P1;SDS_P2;PMS_P1;PMS_P2;Temp;Humidity;BMP_temperature;BMP_pressure;BME280_temperature;BME280_humidity;BME280_pressure;Samples;Min_cycle;Max_cycle;Signal;HPM_P1;HPM_P2
2023/04/10 00:01:07;;;;;;;31.27;22.73;;;11.50;62.30;;;13.95;46.41;102317.75;5032498;28;20248;-60
2023/04/10 00:03:34;;;;;;;28.17;21.80;;;11.40;63.00;;;13.98;46.33;102324.53;5032802;28;20284;-63
2023/04/10 00:06:01;;;;;;;26.30;21.37;;;11.50;62.20;;;14.01;46.49;102322.41;5031733;28;20685;-63
2023/04/10 00:08:28;;;;;;;31.03;24.17;;;11.40;62.20;;;14.05;46.20;102326.41;5033253;28;20204;-63
2023/04/10 00:10:55;;;;;;;26.43;21.40;;;11.40;62.40;;;14.06;46.28;102314.84;5033212;28;20269;-62
2023/04/10 00:13:24;;;;;;;30.93;24.63;;;11.50;62.60;;;14.08;46.73;102319.97;5035263;28;20194;-60
2023/04/10 00:15:51;;;;;;;31.53;23.87;;;11.50;63.20;;;14.07;46.95;102313.84;5015924;28;20691;-64
2023/04/10 00:18:17;;;;;;;30.40;23.30;;;11.50;63.30;;;14.07;46.81;102315.69;5035661;28;20195;-63
2023/04/10 00:20:44;;;;;;;32.80;25.43;;;11.50;63.30;;;14.04;47.35;102310.69;5044945;28;20218;-63
2023/04/10 00:23:11;;;;;;;33.90;25.33;;;11.50;64.20;;;13.98;47.86;102311.31;5036642;28;20202;-62
2023/04/10 00:25:38;;;;;;;34.50;25.73;;;11.50;64.70;;;13.91;48.06;102304.97;5036253;28;20214;-63
2023/04/10 00:28:05;;;;;;;32.10;24.27;;;11.50;65.10;;;13.90;47.90;102311.28;5036829;28;20190;-64
2023/04/10 00:30:34;;;;;;;27.63;22.37;;;11.40;64.70;;;13.90;48.04;102303.34;5037057;28;20191;-63
2023/04/10 00:33:01;;;;;;;30.80;24.60;;;11.50;65.00;;;13.86;48.56;102296.72;5052347;28;20190;-62
2023/04/10 00:35:28;;;;;;;30.40;23.47;;;11.40;65.70;;;13.84;48.68;102293.38;5036810;28;20670;-65
2023/04/10 00:37:55;;;;;;;33.03;26.40;;;11.40;65.70;;;13.80;48.95;102292.03;5036865;28;20276;-62
2023/04/10 00:40:22;;;;;;;31.93;25.47;;;11.30;66.10;;;13.76;49.11;102290.69;5037043;28;20202;-63
2023/04/10 00:42:49;;;;;;;34.27;26.20;;;11.30;66.30;;;13.69;49.37;102289.66;5036696;28;20198;-62
2023/04/10 00:45:18;;;;;;;30.33;24.13;;;11.30;66.70;;;13.65;49.17;102290.94;5036099;28;20225;-63
2023/04/10 00:47:46;;;;;;;33.13;25.30;;;11.20;66.40;;;13.61;49.61;102287.78;5036766;28;20520;-60
2023/04/10 00:50:14;;;;;;;33.00;25.60;;;11.20;67.30;;;13.59;49.72;102287.13;5035337;28;20206;-62
2023/04/10 00:52:41;;;;;;;37.17;27.17;;;11.20;67.40;;;13.52;50.60;102276.34;5036395;28;20186;-62
2023/04/10 00:55:09;;;;;;;33.57;26.43;;;11.20;68.00;;;13.43;50.64;102263.22;5019806;28;20321;-64
2023/04/10 00:57:37;;;;;;;33.47;26.20;;;11.10;68.20;;;13.39;50.62;102272.41;5016071;28;20273;-63
2023/04/10 01:00:05;;;;;;;32.90;27.23;;;11.10;68.20;;;13.37;50.73;102271.75;5016153;28;20555;-62
2023/04/10 01:02:32;;;;;;;33.77;27.10;;;11.00;68.60;;;13.33;50.91;102268.59;5024704;28;20273;-62
2023/04/10 01:05:01;;;;;;;36.30;27.43;;;11.00;68.80;;;13.28;51.17;102265.59;5035169;28;20285;-63
2023/04/10 01:07:47;;;;;;;37.27;29.00;;;11.00;69.10;;;13.25;51.35;102263.25;5035036;28;20249;-61
2023/04/10 01:10:25;;;;;;;37.90;28.43;;;10.90;69.30;;;13.26;51.15;102264.06;5035213;28;20198;-64
2023/04/10 01:13:04;;;;;;;35.93;27.10;;;10.90;69.40;;;13.20;51.55;102268.16;5035573;28;20205;-63
2023/04/10 01:15:42;;;;;;;34.97;26.43;;;10.90;69.80;;;13.19;51.56;102258.56;5034861;28;20221;-64
2023/04/10 01:18:21;;;;;;;36.07;27.13;;;10.90;69.80;;;13.12;51.92;102265.44;5034989;28;20218;-62
2023/04/10 01:20:50;;;;;;;32.57;27.17;;;10.80;70.10;;;13.07;51.92;102256.34;5035469;28;20270;-61
2023/04/10 01:24:06;;;;;;;36.07;27.83;;;10.80;70.30;;;12.94;52.39;102254.03;5034188;28;20639;-61
2023/04/10 01:27:00;;;;;;;35.10;28.60;;;10.80;70.50;;;12.93;52.71;102252.41;5015599;28;20183;-63
2023/04/10 01:29:32;;;;;;;37.80;28.70;;;10.70;70.80;;;12.90;52.75;102250.03;5018599;28;20197;-60
2023/04/10 01:32:03;;;;;;;37.73;28.13;;;10.70;71.10;;;12.95;52.44;102245.13;5035426;28;20195;-64
2023/04/10 01:34:38;;;;;;;35.13;28.10;;;10.70;70.80;;;12.97;52.40;102251.09;5035590;28;20207;-62
2023/04/10 01:37:15;;;;;;;36.47;27.73;;;10.70;71.00;;;13.01;52.51;102247.16;5035409;28;20202;-62
2023/04/10 01:39:48;;;;;;;36.73;28.00;;;10.70;71.20;;;12.97;52.61;102245.81;5034849;28;20639;-62
2023/04/10 01:42:19;;;;;;;37.47;28.60;;;10.70;71.50;;;13.01;52.24;102248.97;5033697;28;20199;-64
2023/04/10 01:44:50;;;;;;;38.07;29.63;;;10.70;71.50;;;12.99;52.52;102243.84;5033320;28;20750;-61
2023/04/10 01:47:18;;;;;;;39.77;30.67;;;10.60;71.50;;;12.91;52.74;102238.47;5035124;28;20178;-63
2023/04/10 01:49:49;;;;;;;38.10;29.57;;;10.60;71.80;;;12.88;52.83;102242.25;5033490;28;20183;-63
2023/04/10 01:52:19;;;;;;;34.40;27.60;;;10.60;71.70;;;12.86;52.76;102238.94;5015385;28;20342;-65
2023/04/10 01:54:47;;;;;;;40.97;29.87;;;10.60;71.90;;;12.78;52.88;102240.69;5015037;28;20223;-63
2023/04/10 01:57:16;;;;;;;36.60;29.00;;;10.50;71.90;;;12.77;53.21;102228.44;5015146;28;20770;-63
2023/04/10 01:59:43;;;;;;;38.90;28.97;;;10.50;72.10;;;12.73;52.98;102233.22;5030837;28;20226;-65
2023/04/10 02:02:11;;;;;;;39.93;30.23;;;10.50;72.20;;;12.72;53.08;102230.72;5034808;28;20198;-62
2023/04/10 02:04:38;;;;;;;38.00;29.90;;;10.40;72.30;;;12.69;53.19;102231.03;5034226;28;20294;-63
2023/04/10 02:07:12;;;;;;;36.73;28.37;;;10.40;72.40;;;12.68;53.10;102224.06;5033164;28;20523;-62
2023/04/10 02:09:48;;;;;;;36.17;28.80;;;10.40;72.50;;;12.62;53.64;102222.06;5034890;28;20209;-62
2023/04/10 02:12:21;;;;;;;38.37;30.00;;;10.40;72.80;;;12.60;53.36;102227.47;5015834;28;20640;-62
2023/04/10 02:14:51;;;;;;;36.03;27.40;;;10.30;72.70;;;12.61;53.38;102223.03;5049356;28;20222;-61
2023/04/10 02:17:27;;;;;;;37.87;28.97;;;10.30;72.70;;;12.52;53.71;102223.94;5034604;28;20203;-63
2023/04/10 02:19:56;;;;;;;39.00;29.57;;;10.30;73.10;;;12.47;53.87;102220.91;5034419;28;20193;-61
2023/04/10 02:22:25;;;;;;;39.33;29.27;;;10.20;73.10;;;12.48;54.12;102223.38;5034439;28;20206;-62
2023/04/10 02:24:53;;;;;;;35.87;29.43;;;10.20;73.20;;;12.53;53.65;102217.66;5049243;28;20222;-63
2023/04/10 02:27:28;;;;;;;39.33;29.87;;;10.20;73.30;;;12.53;53.63;102215.00;5034440;28;20244;-63
2023/04/10 02:29:55;;;;;;;39.90;30.27;;;10.20;73.40;;;12.49;53.60;102203.09;5032920;28;20201;-62
2023/04/10 02:32:24;;;;;;;39.27;29.73;;;10.10;73.20;;;12.46;53.80;102203.41;5034876;28;20227;-63
2023/04/10 02:34:51;;;;;;;40.63;30.87;;;10.10;73.40;;;12.47;53.72;102199.78;5033593;28;20224;-62
2023/04/10 02:37:18;;;;;;;34.77;26.63;;;10.10;73.50;;;12.50;53.42;102199.50;5033783;28;20226;-64
2023/04/10 02:39:45;;;;;;;39.93;30.67;;;10.10;73.20;;;12.43;54.14;102193.97;5034211;28;20206;-64
2023/04/10 02:42:12;;;;;;;35.57;27.63;;;10.10;73.70;;;12.45;53.82;102191.19;5034239;28;20197;-63
2023/04/10 02:44:39;;;;;;;39.00;29.50;;;10.10;73.20;;;12.51;53.79;102190.56;5033642;28;20217;-61
2023/04/10 02:47:06;;;;;;;38.80;29.80;;;10.10;73.50;;;12.55;53.48;102189.31;5047494;28;20195;-63
2023/04/10 02:49:35;;;;;;;33.33;26.53;;;10.10;73.50;;;12.58;53.13;102191.63;5032496;28;20285;-65
2023/04/10 02:52:02;;;;;;;41.37;29.83;;;10.10;73.20;;;12.60;53.07;102193.13;5034127;28;20193;-59
2023/04/10 02:54:29;;;;;;;37.37;28.40;;;10.10;73.40;;;12.62;53.18;102191.16;5033825;28;20213;-64
2023/04/10 02:56:57;;;;;;;37.27;27.30;;;10.10;73.40;;;12.62;53.11;102188.53;5033715;28;20220;-62
2023/04/10 02:59:24;;;;;;;37.77;28.00;;;10.10;73.20;;;12.61;52.81;102183.41;5033987;28;20194;-62
2023/04/10 03:01:51;;;;;;;35.73;28.00;;;10.10;73.20;;;12.59;53.00;102193.28;5033429;28;20217;-63
2023/04/10 03:04:18;;;;;;;38.33;27.90;;;10.10;73.00;;;12.63;52.77;102187.56;5033429;28;20231;-61
2023/04/10 03:06:47;;;;;;;38.63;27.87;;;10.10;73.10;;;12.64;52.54;102191.03;5032337;28;20247;-60
2023/04/10 03:09:14;;;;;;;43.20;31.60;;;10.10;73.00;;;12.65;52.87;102192.66;5034155;28;20225;-60
2023/04/10 03:11:41;;;;;;;39.53;29.70;;;10.10;73.20;;;12.59;52.94;102188.84;5034123;28;20205;-63
2023/04/10 03:14:10;;;;;;;38.60;29.60;;;10.10;73.20;;;12.56;53.03;102183.88;5033632;28;20229;-62
2023/04/10 03:16:37;;;;;;;37.03;29.67;;;10.00;73.00;;;12.52;53.04;102182.50;5033471;28;20190;-61
2023/04/10 03:19:05;;;;;;;39.00;30.37;;;10.00;72.90;;;12.49;52.93;102176.69;5033690;28;20214;-63
2023/04/10 03:21:32;;;;;;;44.90;32.77;;;10.00;72.90;;;12.49;53.39;102171.41;5033974;28;20210;-59
2023/04/10 03:24:01;;;;;;;40.10;29.10;;;9.90;74.40;;;12.42;53.13;102170.34;5013888;28;20211;-60
2023/04/10 03:26:28;;;;;;;37.30;28.20;;;10.00;73.20;;;12.40;53.24;102167.03;5028913;28;20197;-63
2023/04/10 03:28:55;;;;;;;37.63;29.53;;;9.90;74.10;;;12.35;53.22;102166.66;5013873;28;20196;-62
2023/04/10 03:31:22;;;;;;;35.50;28.67;;;9.90;74.50;;;12.33;53.18;102160.69;5025347;28;20187;-64
2023/04/10 03:33:49;;;;;;;36.10;27.60;;;9.90;74.30;;;12.31;53.36;102162.66;5033496;28;20749;-63
2023/04/10 03:36:16;;;;;;;42.17;30.63;;;9.90;74.20;;;12.28;53.64;102155.03;5033730;28;20667;-64
2023/04/10 03:38:43;;;;;;;37.47;29.13;;;9.80;74.60;;;12.20;53.64;102155.78;5033428;28;20216;-63
2023/04/10 03:41:12;;;;;;;39.43;29.33;;;9.80;74.50;;;12.18;53.46;102153.31;5033656;28;20540;-65
2023/04/10 03:43:39;;;;;;;34.67;27.60;;;9.80;74.60;;;12.17;53.64;102149.00;5033266;28;20250;-63
2023/04/10 03:46:06;;;;;;;36.70;28.83;;;9.70;74.40;;;12.18;53.63;102148.03;5034367;28;20195;-63
2023/04/10 03:48:33;;;;;;;35.73;26.77;;;9.70;74.60;;;12.18;53.07;102147.19;5037390;28;20195;-63
2023/04/10 03:51:01;;;;;;;40.60;31.43;;;9.70;74.60;;;12.17;53.25;102150.84;5037485;28;20281;-63
2023/04/10 03:53:28;;;;;;;41.47;30.73;;;9.60;74.80;;;12.14;53.51;102146.69;5036947;28;20225;-61
2023/04/10 03:55:55;;;;;;;35.70;27.87;;;9.60;74.60;;;12.13;53.63;102149.44;5037105;28;20554;-64
2023/04/10 03:58:23;;;;;;;37.07;28.50;;;9.60;74.40;;;12.14;53.38;102146.69;5037424;28;20246;-62
2023/04/10 04:00:50;;;;;;;41.93;29.50;;;9.60;74.50;;;12.13;53.45;102152.09;5035610;28;20663;-62
2023/04/10 04:03:17;;;;;;;37.77;28.90;;;9.60;74.40;;;12.08;53.56;102147.25;5036772;28;20201;-63
2023/04/10 04:05:44;;;;;;;39.73;30.47;;;9.60;74.40;;;12.10;53.01;102147.94;5052367;28;20216;-62
2023/04/10 04:08:12;;;;;;;40.17;29.77;;;9.60;74.50;;;12.10;53.54;102145.31;5036779;28;20191;-63
2023/04/10 04:10:39;;;;;;;38.30;28.80;;;9.60;74.70;;;12.09;53.39;102148.94;5036727;28;20273;-63
2023/04/10 04:13:06;;;;;;;36.63;29.00;;;9.60;74.40;;;12.06;53.52;102145.75;5052046;28;20574;-64
2023/04/10 04:15:34;;;;;;;41.10;29.50;;;9.50;74.60;;;12.03;53.13;102149.50;5036157;28;20226;-62
2023/04/10 04:18:01;;;;;;;36.50;27.70;;;9.60;74.50;;;12.02;53.55;102147.88;5036652;28;20214;-61
2023/04/10 04:20:28;;;;;;;34.03;26.63;;;9.50;74.30;;;12.06;53.32;102149.22;5036884;28;20195;-63
2023/04/10 04:22:55;;;;;;;37.53;28.47;;;9.50;74.20;;;12.05;52.83;102147.56;5036495;28;20252;-63
2023/04/10 04:25:22;;;;;;;39.10;29.23;;;9.50;74.40;;;11.98;53.24;102148.31;5036351;28;20214;-62
2023/04/10 04:27:50;;;;;;;38.17;29.20;;;9.50;74.40;;;11.95;53.36;102151.25;5036627;28;20191;-64
2023/04/10 04:30:17;;;;;;;37.87;29.93;;;9.50;74.50;;;11.92;53.37;102147.09;5036373;28;20202;-61
2023/04/10 04:32:45;;;;;;;35.87;27.47;;;9.40;74.60;;;11.90;53.39;102154.34;5035388;28;20203;-63
2023/04/10 04:35:12;;;;;;;36.47;28.30;;;9.40;74.50;;;11.92;53.50;102149.72;5036390;28;20220;-59
2023/04/10 04:37:39;;;;;;;40.50;30.10;;;9.40;74.50;;;11.95;53.29;102156.53;5036808;28;20268;-64
2023/04/10 04:40:07;;;;;;;35.33;28.00;;;9.40;74.60;;;11.94;53.01;102150.41;5036745;28;20211;-63
2023/04/10 04:42:34;;;;;;;36.37;28.43;;;9.40;74.50;;;11.94;53.32;102155.69;5036335;28;20182;-65
2023/04/10 04:45:01;;;;;;;40.70;28.63;;;9.40;74.50;;;11.88;53.06;102153.66;5035513;28;20214;-63
2023/04/10 04:47:29;;;;;;;39.20;30.03;;;9.40;74.60;;;11.87;53.10;102146.72;5036312;28;20182;-62
2023/04/10 04:49:57;;;;;;;37.07;28.60;;;9.40;74.60;;;11.90;52.95;102149.06;5036248;28;20548;-62
2023/04/10 04:52:24;;;;;;;37.13;28.23;;;9.40;74.60;;;11.90;53.31;102154.34;5035968;28;20199;-62
2023/04/10 04:54:51;;;;;;;38.77;30.23;;;9.30;74.50;;;11.90;53.42;102159.63;5034552;28;20219;-63
2023/04/10 04:57:18;;;;;;;35.23;26.30;;;9.40;74.60;;;11.92;52.96;102149.72;5034837;28;20606;-63
2023/04/10 04:59:45;;;;;;;37.27;28.63;;;9.40;74.40;;;11.97;52.85;102150.13;5035584;28;20244;-62
2023/04/10 05:02:12;;;;;;;38.23;27.77;;;9.40;74.60;;;12.01;52.88;102156.75;5048062;28;20241;-62
2023/04/10 05:04:41;;;;;;;39.87;28.33;;;9.50;74.50;;;12.00;53.07;102155.13;5035443;28;20225;-64
2023/04/10 05:07:09;;;;;;;35.80;28.30;;;9.40;74.30;;;12.00;52.89;102156.91;5035442;28;20199;-62
2023/04/10 05:09:36;;;;;;;38.67;28.93;;;9.40;74.10;;;11.97;52.71;102155.41;5034417;28;20587;-62
2023/04/10 05:12:03;;;;;;;38.40;30.27;;;9.40;74.00;;;11.99;52.66;102153.44;5035258;28;20194;-64
2023/04/10 05:14:30;;;;;;;36.23;27.23;;;9.40;74.00;;;12.00;52.56;102154.28;5034398;28;20214;-62
2023/04/10 05:16:57;;;;;;;36.40;28.37;;;9.50;74.00;;;12.06;52.70;102159.78;5035435;28;20592;-62
2023/04/10 05:19:24;;;;;;;34.67;28.47;;;9.50;74.00;;;12.10;52.45;102150.56;5035529;28;20626;-62
2023/04/10 05:21:51;;;;;;;35.60;29.23;;;9.50;74.00;;;12.07;52.26;102150.91;5035442;28;20280;-63
2023/04/10 05:24:20;;;;;;;37.83;30.13;;;9.50;73.90;;;12.06;52.42;102154.50;5035213;28;20218;-62
2023/04/10 05:26:47;;;;;;;35.47;27.17;;;9.50;73.90;;;12.08;52.89;102152.53;5035564;28;20203;-60
2023/04/10 05:29:14;;;;;;;35.57;28.23;;;9.50;73.80;;;12.15;52.25;102158.03;5035692;28;20187;-63
2023/04/10 05:31:41;;;;;;;38.50;28.33;;;9.50;73.80;;;12.21;52.39;102153.03;5035040;28;20655;-63
2023/04/10 05:34:08;;;;;;;36.60;28.73;;;9.60;73.70;;;12.11;52.28;102146.97;5034547;28;20566;-64
2023/04/10 05:36:35;;;;;;;35.83;27.67;;;9.60;73.70;;;12.11;52.33;102133.78;5033958;28;20216;-62
2023/04/10 05:39:02;;;;;;;35.60;27.43;;;9.60;73.60;;;12.16;52.44;102136.78;5034879;28;20316;-61
2023/04/10 05:41:31;;;;;;;37.73;28.70;;;9.60;73.50;;;12.15;52.53;102135.13;5034561;28;20186;-62
2023/04/10 05:43:58;;;;;;;37.07;27.20;;;9.70;73.60;;;12.19;52.49;102133.84;5034716;28;20237;-63
2023/04/10 05:46:24;;;;;;;34.07;27.40;;;9.70;73.40;;;12.23;51.93;102129.09;5035124;28;20204;-63
2023/04/10 05:48:52;;;;;;;33.93;26.90;;;9.70;73.20;;;12.27;51.94;102129.59;5034953;28;20225;-62
2023/04/10 05:51:19;;;;;;;34.50;27.90;;;9.70;73.00;;;12.30;51.79;102124.03;5035008;28;20229;-61
2023/04/10 05:53:47;;;;;;;31.27;25.70;;;9.80;73.00;;;12.41;51.70;102134.38;5034758;28;20194;-64
2023/04/10 05:56:14;;;;;;;35.17;27.33;;;9.80;72.90;;;12.43;51.62;102135.06;5035125;28;20200;-63
2023/04/10 05:58:42;;;;;;;37.03;27.47;;;9.80;72.80;;;12.36;51.76;102123.44;5035061;28;20265;-64
2023/04/10 06:01:10;;;;;;;32.50;26.23;;;9.80;72.60;;;12.38;51.93;102126.75;5034859;28;20249;-64
2023/04/10 06:03:37;;;;;;;32.43;26.20;;;9.80;72.60;;;12.41;51.84;102126.47;5035715;28;20198;-63
2023/04/10 06:06:06;;;;;;;32.53;25.33;;;9.90;72.70;;;12.51;51.36;102132.47;5052408;28;20202;-64
2023/04/10 06:08:33;;;;;;;33.90;26.83;;;9.90;72.70;;;12.55;51.18;102123.28;5042699;28;20190;-63
2023/04/10 06:11:00;;;;;;;35.30;25.53;;;9.90;72.50;;;12.58;51.50;102117.66;5041250;28;20205;-62
2023/04/10 06:13:27;;;;;;;34.47;27.50;;;10.00;71.40;;;12.65;51.05;102116.06;5036424;28;20190;-61
2023/04/10 06:15:55;;;;;;;33.60;26.40;;;10.00;71.30;;;12.73;50.99;102110.84;5033399;28;20213;-62
2023/04/10 06:18:22;;;;;;;31.80;26.57;;;10.10;71.20;;;12.78;50.68;102119.16;5034527;28;20210;-60
2023/04/10 06:20:49;;;;;;;32.47;26.67;;;10.10;71.00;;;12.79;50.68;102110.22;5049946;28;20202;-64
2023/04/10 06:23:16;;;;;;;28.93;24.67;;;10.20;70.90;;;12.87;50.70;102108.47;5034352;28;20252;-62
2023/04/10 06:25:43;;;;;;;31.10;25.17;;;10.20;70.70;;;13.03;50.31;102106.91;5034227;28;20576;-63
2023/04/10 06:28:10;;;;;;;34.90;27.23;;;10.30;70.70;;;13.11;50.29;102113.13;5034506;28;20211;-66
2023/04/10 06:30:37;;;;;;;32.10;25.63;;;10.40;70.50;;;13.18;50.34;102098.28;5034186;28;20217;-62
2023/04/10 06:33:05;;;;;;;33.47;25.70;;;10.40;70.30;;;13.32;50.09;102102.97;5034416;28;20276;-62
2023/04/10 06:35:33;;;;;;;29.67;24.57;;;10.50;70.20;;;13.47;49.67;102098.75;5033869;28;20268;-60
2023/04/10 06:38:00;;;;;;;30.07;24.73;;;10.70;70.10;;;13.59;49.27;102094.00;5050169;28;20216;-62
2023/04/10 06:40:28;;;;;;;31.73;24.17;;;10.70;69.60;;;13.62;49.09;102098.94;5033801;28;20289;-63
2023/04/10 06:42:55;;;;;;;31.27;25.33;;;10.80;69.30;;;13.68;48.99;102090.38;5049857;28;20622;-63
2023/04/10 06:45:22;;;;;;;28.10;22.60;;;10.90;69.10;;;13.81;48.94;102087.28;5048743;28;20233;-63
2023/04/10 06:47:50;;;;;;;31.57;26.07;;;11.00;69.00;;;13.80;48.75;102086.44;5034214;28;20245;-63
2023/04/10 06:50:18;;;;;;;28.50;23.77;;;11.00;68.60;;;13.74;48.84;102091.56;5033951;28;20199;-62
2023/04/10 06:52:45;;;;;;;30.77;23.70;;;11.10;68.40;;;13.80;48.96;102090.91;5034363;28;20198;-62
2023/04/10 06:55:12;;;;;;;28.70;24.20;;;11.10;68.30;;;13.89;48.85;102096.03;5032801;28;20218;-61
2023/04/10 06:57:39;;;;;;;29.73;23.00;;;11.30;68.40;;;14.05;48.62;102092.59;5049539;28;20280;-63
2023/04/10 07:00:08;;;;;;;29.77;23.33;;;11.30;68.30;;;14.08;48.37;102095.75;5033822;28;20229;-64
2023/04/10 07:02:35;;;;;;;26.27;23.00;;;11.40;67.80;;;14.16;48.28;102093.13;5034259;28;20205;-66
2023/04/10 07:05:02;;;;;;;28.97;23.03;;;11.50;67.70;;;14.18;47.95;102091.13;5032661;28;20318;-63
2023/04/10 07:07:31;;;;;;;25.57;21.63;;;11.50;67.20;;;14.23;48.04;102091.47;5034185;28;20205;-61
2023/04/10 07:09:58;;;;;;;27.90;23.73;;;11.60;67.30;;;14.38;47.77;102094.28;5033730;28;20205;-63
2023/04/10 07:12:25;;;;;;;26.83;23.73;;;11.70;67.10;;;14.37;47.75;102087.34;5033830;28;20198;-62
2023/04/10 07:14:52;;;;;;;26.70;22.13;;;11.80;66.90;;;14.47;47.82;102084.53;5031881;28;20225;-61
2023/04/10 07:17:20;;;;;;;26.50;22.83;;;11.90;67.00;;;14.81;47.48;102083.31;5033788;28;20197;-62
2023/04/10 07:19:47;;;;;;;26.07;21.97;;;12.00;67.10;;;15.31;46.73;102076.84;5032272;28;20309;-62
2023/04/10 07:22:14;;;;;;;23.23;20.70;;;12.20;66.90;;;15.90;46.16;102078.88;5037072;28;20191;-63
2023/04/10 07:24:43;;;;;;;25.57;22.43;;;12.50;67.40;;;16.44;44.55;102070.84;5037067;28;20214;-62
2023/04/10 07:27:11;;;;;;;24.97;20.10;;;12.90;65.40;;;16.95;43.85;102078.00;5053241;28;20249;-62
2023/04/10 07:29:38;;;;;;;22.20;19.90;;;13.30;64.70;;;17.59;42.81;102069.25;5037609;28;20659;-63
2023/04/10 07:32:05;;;;;;;24.33;21.30;;;13.70;63.60;;;18.30;41.25;102064.84;5037773;28;20221;-61
2023/04/10 07:34:32;;;;;;;21.20;17.47;;;14.30;62.60;;;19.13;40.78;102063.97;5052100;28;20214;-62
2023/04/10 07:36:59;;;;;;;21.93;19.57;;;14.80;62.30;;;19.96;39.21;102058.31;5037741;28;20225;-61
2023/04/10 07:39:26;;;;;;;20.57;18.37;;;15.40;60.00;;;20.66;37.74;102052.38;5037359;28;20575;-63
2023/04/10 07:41:55;;;;;;;22.00;19.27;;;16.10;58.20;;;21.32;36.49;102055.72;5037829;28;20198;-63
2023/04/10 07:44:22;;;;;;;20.87;18.50;;;16.60;57.40;;;21.85;34.41;102050.91;5036841;28;20206;-64
2023/04/10 07:46:51;;;;;;;21.53;19.37;;;17.20;54.50;;;22.31;33.44;102046.03;5036532;28;20209;-63
2023/04/10 07:49:18;;;;;;;23.30;20.93;;;17.70;52.20;;;22.66;31.99;102039.09;5037202;28;20179;-63
2023/04/10 07:51:44;;;;;;;21.10;18.97;;;18.10;50.20;;;23.16;32.58;102038.97;5036663;28;20268;-62
2023/04/10 07:54:11;;;;;;;19.67;17.57;;;18.60;51.10;;;23.75;31.33;102038.22;5037308;28;20232;-64
2023/04/10 07:56:38;;;;;;;22.73;20.43;;;19.00;49.60;;;24.20;29.80;102037.50;5052946;28;20309;-65
2023/04/10 07:59:07;;;;;;;20.40;18.40;;;19.40;46.50;;;24.58;29.04;102031.66;5038174;28;20633;-63
2023/04/10 08:01:34;;;;;;;20.70;18.60;;;19.90;45.60;;;24.85;29.42;102026.63;5038357;28;20190;-64
2023/04/10 08:04:01;;;;;;;19.43;17.50;;;20.20;44.80;;;25.37;29.19;102028.22;5039801;28;20301;-62
2023/04/10 08:06:32;;;;;;;19.83;17.83;;;20.60;44.90;;;25.94;27.82;102025.47;5040363;28;20197;-64
2023/04/10 08:09:00;;;;;;;20.63;18.53;;;20.90;42.70;;;26.23;26.64;102016.28;5041279;28;20195;-64
2023/04/10 08:11:30;;;;;;;20.73;18.63;;;21.30;41.30;;;26.60;26.37;102009.25;5036580;28;20258;-63
2023/04/10 08:14:02;;;;;;;17.40;15.80;;;21.60;40.30;;;27.15;26.57;102002.91;5036542;28;20211;-64
2023/04/10 08:16:32;;;;;;;18.23;16.33;;;22.10;41.20;;;27.59;25.12;101999.09;5037106;28;20182;-65
2023/04/10 08:19:01;;;;;;;17.53;15.93;;;22.40;38.70;;;27.85;24.12;102000.97;5036845;28;20225;-63
2023/04/10 08:21:30;;;;;;;17.00;15.20;;;22.70;36.80;;;27.81;23.87;101980.91;5036820;28;20191;-63
2023/04/10 08:24:00;;;;;;;16.20;14.70;;;22.90;36.00;;;27.95;23.91;101982.09;5051681;28;20219;-62
2023/04/10 08:26:28;;;;;;;15.57;14.17;;;23.10;35.50;;;27.95;23.65;101975.84;5035557;28;20206;-63
2023/04/10 08:28:58;;;;;;;14.63;13.17;;;23.20;34.80;;;28.08;23.35;101973.53;5035954;28;20208;-64
2023/04/10 08:31:28;;;;;;;15.40;13.90;;;23.40;34.90;;;28.13;23.04;101972.75;5036859;28;20619;-63
2023/04/10 08:33:56;;;;;;;15.63;14.13;;;23.50;33.70;;;28.19;23.43;101969.81;5035464;28;20199;-63
2023/04/10 08:36:25;;;;;;;15.90;14.40;;;23.60;33.90;;;28.23;22.98;101961.16;5036364;28;20277;-63
2023/04/10 08:38:53;;;;;;;14.90;13.40;;;23.60;33.40;;;28.18;23.81;101964.66;5036559;28;20210;-62
2023/04/10 08:41:20;;;;;;;14.90;13.50;;;23.80;34.50;;;28.40;23.56;101956.41;5051717;28;20686;-61
2023/04/10 08:43:48;;;;;;;13.93;12.73;;;23.90;34.40;;;28.70;23.42;101962.81;5035985;28;20198;-64
2023/04/10 08:46:16;;;;;;;15.67;14.07;;;24.10;34.50;;;28.88;22.78;101964.22;5035475;28;20313;-63
2023/04/10 08:48:51;;;;;;;15.43;13.97;;;24.10;33.30;;;29.23;22.98;101961.63;5036237;28;20190;-62
2023/04/10 08:51:27;;;;;;;15.77;14.27;;;24.50;33.90;;;29.73;22.15;101960.03;5035832;28;20680;-61
2023/04/10 08:54:05;;;;;;;14.73;13.23;;;24.70;32.50;;;29.97;21.79;101948.38;5035400;28;20214;-63
2023/04/10 08:56:34;;;;;;;15.93;14.43;;;24.90;32.20;;;30.13;21.21;101949.16;5036257;28;20256;-62
2023/04/10 08:59:03;;;;;;;14.37;12.87;;;25.10;31.50;;;30.09;21.53;101943.47;5035210;28;20309;-63
2023/04/10 09:01:30;;;;;;;13.60;12.37;;;25.30;31.10;;;30.40;20.88;101943.41;5015063;28;20559;-64
2023/04/10 09:03:57;;;;;;;13.43;12.23;;;25.40;30.40;;;30.65;20.80;101930.53;5034574;28;20744;-62
2023/04/10 09:06:27;;;;;;;13.40;12.27;;;25.60;30.30;;;30.99;20.67;101925.19;5035771;28;20198;-63
2023/04/10 09:08:54;;;;;;;12.03;11.03;;;25.80;30.10;;;31.04;20.21;101927.91;5051180;28;20186;-63
2023/04/10 09:11:21;;;;;;;13.43;12.17;;;26.00;29.70;;;31.25;20.40;101923.13;5035399;28;20202;-62
2023/04/10 09:13:48;;;;;;;12.03;10.93;;;26.20;29.70;;;31.13;19.31;101917.22;5034929;28;20195;-63
2023/04/10 09:16:15;;;;;;;12.73;11.63;;;26.20;28.70;;;31.33;19.67;101915.16;5035433;28;20643;-63
2023/04/10 09:18:45;;;;;;;11.60;10.57;;;26.40;29.20;;;31.22;19.80;101912.78;5035718;28;20194;-63
2023/04/10 09:21:16;;;;;;;11.73;10.83;;;26.30;28.50;;;31.15;19.13;101906.84;5035199;28;20209;-61
2023/04/10 09:23:46;;;;;;;11.27;10.27;;;26.30;27.70;;;30.76;18.59;101913.06;5035640;28;20195;-63
2023/04/10 09:26:26;;;;;;;11.23;10.23;;;26.20;27.40;;;29.82;18.74;101906.84;5035827;28;20187;-62
2023/04/10 09:29:00;;;;;;;10.33;9.43;;;25.60;26.70;;;29.45;19.83;101886.19;5034398;28;20175;-61
2023/04/10 09:31:33;;;;;;;9.37;8.57;;;25.60;27.70;;;29.92;19.89;101883.19;5034758;28;20260;-63
2023/04/10 09:34:09;;;;;;;10.77;9.67;;;25.60;28.30;;;30.37;18.90;101870.56;5034931;28;20206;-63
2023/04/10 09:36:37;;;;;;;9.60;8.80;;;25.70;27.50;;;30.02;18.47;101872.28;5035320;28;20542;-63
2023/04/10 09:39:06;;;;;;;9.07;8.30;;;25.40;26.50;;;29.64;19.08;101878.34;5034934;28;20202;-62
2023/04/10 09:41:33;;;;;;;9.90;9.00;;;25.40;26.70;;;29.00;19.06;101861.75;5034962;28;20555;-64
2023/04/10 09:44:10;;;;;;;9.07;8.37;;;24.90;26.50;;;28.30;20.02;101858.81;5032919;28;20211;-61
2023/04/10 09:46:37;;;;;;;9.03;8.23;;;24.70;27.00;;;28.27;20.29;101853.91;5034988;28;20237;-62
2023/04/10 09:49:06;;;;;;;9.40;8.60;;;24.60;28.00;;;28.49;20.22;101846.41;5034944;28;20198;-63
2023/04/10 09:51:35;;;;;;;15.20;8.50;;;24.60;27.90;;;29.00;19.10;101852.81;5034729;28;20202;-62
2023/04/10 09:54:03;;;;;;;8.83;8.07;;;24.60;27.20;;;28.23;19.37;101831.97;5034414;28;20206;-63
2023/04/10 09:56:37;;;;;;;9.53;8.70;;;24.20;26.60;;;27.73;20.03;101827.09;5034819;28;20202;-63
2023/04/10 09:59:06;;;;;;;8.07;7.37;;;24.10;27.00;;;27.90;20.23;101825.03;5034596;28;20546;-64
2023/04/10 10:01:36;;;;;;;9.23;8.17;;;24.20;27.30;;;27.77;19.69;101817.34;5034501;28;20202;-63
2023/04/10 10:04:04;;;;;;;9.30;8.50;;;24.00;26.90;;;28.00;20.07;101822.38;5033438;28;20264;-64
2023/04/10 10:06:32;;;;;;;8.97;8.17;;;24.00;27.20;;;28.23;19.71;101809.47;5033275;28;20198;-62
2023/04/10 10:09:03;;;;;;;9.07;8.27;;;24.10;27.30;;;28.18;20.04;101813.81;5034671;28;20186;-64